Time;durP1;ratioP1;P1;durP2;ratioP2;P2;SDS_P1;SDS_P2;PMS_P1;PMS_P2;Temp;Humidity;BMP_temperature;BMP_pressure;BME280_temperature;BME280_humidity;BME280_pressure;Samples;Min_cycle;Max_cycle;Signal;HPM_P1;HPM_P2
2023/10/26 00:01:35;;;;;;;;;;;;;;;9.64;100.00;94796.59;5106368;28;19948;-72
2023/10/26 00:04:00;;;;;;;;;;;;;;;9.60;100.00;94801.56;5106384;28;20232;-79
2023/10/26 00:06:26;;;;;;;;;;;;;;;9.59;100.00;94804.44;5106326;28;19949;-72
2023/10/26 00:08:52;;;;;;;;;;;;;;;9.59;100.00;94801.81;5107132;28;20004;-73
2023/10/26 00:11:18;;;;;;;;;;;;;;;9.57;100.00;94804.69;5106492;28;19938;-73
2023/10/26 00:13:44;;;;;;;;;;;;;;;9.59;100.00;94807.03;5106219;28;20108;-73
2023/10/26 00:16:10;;;;;;;;;;;;;;;9.59;100.00;94807.03;5105951;28;20263;-73
2023/10/26 00:18:35;;;;;;;;;;;;;;;9.60;100.00;94803.41;5106079;28;20179;-73
2023/10/26 00:21:01;;;;;;;;;;;;;;;9.64;100.00;94814.91;5106052;28;19937;-77
2023/10/26 00:23:27;;;;;;;;;;;;;;;9.68;100.00;94814.19;5105963;28;19978;-82
2023/10/26 00:25:53;;;;;;;;;;;;;;;9.73;100.00;94802.97;5105692;28;19947;-82
2023/10/26 00:28:19;;;;;;;;;;;;;;;9.73;100.00;94800.34;5105613;28;19941;-82
2023/10/26 00:30:45;;;;;;;;;;;;;;;9.72;100.00;94804.78;5105286;28;19970;-82
2023/10/26 00:33:11;;;;;;;;;;;;;;;9.71;100.00;94805.03;5105797;28;19935;-82
2023/10/26 00:35:37;;;;;;;;;;;;;;;9.70;100.00;94809.50;5104590;28;19977;-82
2023/10/26 00:38:03;;;;;;;;;;;;;;;9.67;100.00;94809.97;5105748;28;19948;-80
2023/10/26 00:40:29;;;;;;;;;;;;;;;9.67;100.00;94804.75;5104539;28;20010;-75
2023/10/26 00:42:59;;;;;;;;;;;;;;;9.66;100.00;94807.59;5105267;28;20267;-72
2023/10/26 00:45:26;;;;;;;;;;;;;;;9.64;100.00;94807.06;5104933;28;20210;-72
2023/10/26 00:47:52;;;;;;;;;;;;;;;9.63;100.00;94800.28;5105540;28;19935;-72
2023/10/26 00:50:17;;;;;;;;;;;;;;;9.62;100.00;94802.09;5106024;28;19941;-72
2023/10/26 00:52:44;;;;;;;;;;;;;;;9.59;100.00;94813.06;5105417;28;19935;-72
2023/10/26 00:55:10;;;;;;;;;;;;;;;9.53;100.00;94804.41;5104367;28;20115;-72
2023/10/26 00:57:36;;;;;;;;;;;;;;;9.49;100.00;94805.13;5106170;28;19945;-73
2023/10/26 01:00:04;;;;;;;;;;;;;;;9.46;100.00;94811.66;5105317;28;19942;-75
2023/10/26 01:02:30;;;;;;;;;;;;;;;9.43;100.00;94812.19;5105951;28;19951;-75
2023/10/26 01:04:56;;;;;;;;;;;;;;;9.40;100.00;94810.06;5105326;28;19949;-75
2023/10/26 01:07:21;;;;;;;;;;;;;;;9.38;100.00;94814.75;5105971;28;19941;-75
2023/10/26 01:09:47;;;;;;;;;;;;;;;9.37;100.00;94813.19;5105149;28;19941;-75
2023/10/26 01:12:13;;;;;;;;;;;;;;;9.35;100.00;94813.41;5105032;28;19953;-76
2023/10/26 01:14:39;;;;;;;;;;;;;;;9.33;100.00;94814.72;5105045;28;20288;-75
2023/10/26 01:17:05;;;;;;;;;;;;;;;9.32;100.00;94813.13;5105042;28;20030;-81
2023/10/26 01:19:37;;;;;;;;;;;;;;;9.28;100.00;94809.44;5104898;28;20180;-72
2023/10/26 01:22:03;;;;;;;;;;;;;;;9.26;100.00;94811.50;5104294;28;19954;-72
2023/10/26 01:24:29;;;;;;;;;;;;;;;9.21;100.00;94816.72;5104789;28;19935;-72
2023/10/26 01:26:55;;;;;;;;;;;;;;;9.18;100.00;94814.59;5104766;28;19955;-72
2023/10/26 01:29:21;;;;;;;;;;;;;;;9.15;100.00;94815.88;5105304;28;19943;-72
2023/10/26 01:31:47;;;;;;;;;;;;;;;9.09;100.00;94814.25;5104966;28;19933;-72
2023/10/26 01:34:13;;;;;;;;;;;;;;;9.05;100.00;94813.16;5104896;28;19948;-80
2023/10/26 01:36:39;;;;;;;;;;;;;;;9.02;100.00;94813.66;5104664;28;19940;-72
2023/10/26 01:39:05;;;;;;;;;;;;;;;8.99;100.00;94817.56;5104548;28;19938;-72
2023/10/26 01:41:32;;;;;;;;;;;;;;;8.95;100.00;94819.09;5104482;28;20225;-72
2023/10/26 01:43:58;;;;;;;;;;;;;;;8.94;100.00;94814.91;5105087;28;19948;-72
2023/10/26 01:46:24;;;;;;;;;;;;;;;8.91;100.00;94810.94;5104465;28;19942;-73
2023/10/26 01:48:50;;;;;;;;;;;;;;;8.89;100.00;94807.78;5105290;28;19995;-72
2023/10/26 01:51:15;;;;;;;;;;;;;;;8.87;100.00;94812.47;5104971;28;19960;-73
2023/10/26 01:53:42;;;;;;;;;;;;;;;8.85;100.00;94814.56;5104425;28;19940;-72
2023/10/26 01:56:08;;;;;;;;;;;;;;;8.83;100.00;94808.78;5104300;28;19943;-72
2023/10/26 01:58:34;;;;;;;;;;;;;;;8.81;100.00;94802.22;5104897;28;20006;-72
2023/10/26 02:01:00;;;;;;;;;;;;;;;8.79;100.00;94794.63;5104794;28;20223;-72
2023/10/26 02:03:26;;;;;;;;;;;;;;;8.77;100.00;94799.31;5104223;28;20103;-72
2023/10/26 02:05:52;;;;;;;;;;;;;;;8.75;100.00;94806.59;5104280;28;19936;-72
2023/10/26 02:08:17;;;;;;;;;;;;;;;8.74;100.00;94797.22;5103863;28;19936;-72
2023/10/26 02:10:43;;;;;;;;;;;;;;;8.71;100.00;94806.34;5104761;28;19949;-80
2023/10/26 02:13:10;;;;;;;;;;;;;;;8.69;100.00;94800.56;5104213;28;20015;-78
2023/10/26 02:15:35;;;;;;;;;;;;;;;8.68;100.00;94804.19;5102909;28;20222;-81
2023/10/26 02:18:02;;;;;;;;;;;;;;;8.65;100.00;94804.69;5103804;28;19965;-81
2023/10/26 02:20:28;;;;;;;;;;;;;;;8.64;100.00;94807.56;5104875;28;19960;-81
2023/10/26 02:22:53;;;;;;;;;;;;;;;8.63;100.00;94809.38;5086860;28;20280;-81
2023/10/26 02:25:22;;;;;;;;;;;;;;;8.61;100.00;94803.63;5104083;28;19939;-81
2023/10/26 02:27:48;;;;;;;;;;;;;;;8.61;100.00;94813.25;5102931;28;19999;-81
2023/10/26 02:30:14;;;;;;;;;;;;;;;8.58;100.00;94809.31;5085967;28;19960;-72
2023/10/26 02:32:40;;;;;;;;;;;;;;;8.56;100.00;94808.75;5104017;28;20219;-71
2023/10/26 02:35:06;;;;;;;;;;;;;;;8.54;100.00;94798.56;5103861;28;19953;-71
2023/10/26 02:37:38;;;;;;;;;;;;;;;8.53;100.00;94799.59;5104150;28;19939;-71
2023/10/26 02:40:08;;;;;;;;;;;;;;;8.51;100.00;94796.44;5104527;28;19937;-71
2023/10/26 02:42:35;;;;;;;;;;;;;;;8.50;100.00;94791.47;5104346;28;19959;-72
2023/10/26 02:45:03;;;;;;;;;;;;;;;8.49;100.00;94793.28;5104419;28;19948;-71
2023/10/26 02:47:29;;;;;;;;;;;;;;;8.46;100.00;94795.59;5104672;28;19946;-72
2023/10/26 02:49:55;;;;;;;;;;;;;;;8.44;100.00;94793.25;5103813;28;19940;-72
2023/10/26 02:52:21;;;;;;;;;;;;;;;8.43;100.00;94793.47;5104637;28;19958;-80
2023/10/26 02:54:47;;;;;;;;;;;;;;;8.43;100.00;94796.88;5103797;28;20206;-80
2023/10/26 02:57:15;;;;;;;;;;;;;;;8.41;100.00;94796.34;5103756;28;19952;-81
2023/10/26 02:59:41;;;;;;;;;;;;;;;8.40;100.00;94794.72;5103708;28;19938;-80
2023/10/26 03:02:07;;;;;;;;;;;;;;;8.40;100.00;94799.97;5102575;28;19991;-80
2023/10/26 03:04:34;;;;;;;;;;;;;;;8.41;100.00;94790.31;5104503;28;19937;-80
2023/10/26 03:07:00;;;;;;;;;;;;;;;8.40;100.00;94791.31;5102500;28;19946;-79
2023/10/26 03:09:28;;;;;;;;;;;;;;;8.39;100.00;94787.13;5104149;28;19931;-78
2023/10/26 03:11:53;;;;;;;;;;;;;;;8.37;100.00;94797.81;5103648;28;19939;-78
2023/10/26 03:14:19;;;;;;;;;;;;;;;8.37;100.00;94792.59;5103512;28;19934;-78
2023/10/26 03:16:45;;;;;;;;;;;;;;;8.36;100.00;94788.41;5103396;28;19968;-78
2023/10/26 03:19:11;;;;;;;;;;;;;;;8.36;100.00;94788.41;5105266;28;19940;-78
2023/10/26 03:21:37;;;;;;;;;;;;;;;8.34;100.00;94788.66;5107175;28;19937;-78
2023/10/26 03:24:03;;;;;;;;;;;;;;;8.34;100.00;94788.66;5106769;28;19944;-75
2023/10/26 03:26:28;;;;;;;;;;;;;;;8.32;100.00;94790.72;5107104;28;19947;-80
2023/10/26 03:28:54;;;;;;;;;;;;;;;8.32;100.00;94795.94;5107617;28;19949;-72
2023/10/26 03:31:20;;;;;;;;;;;;;;;8.31;100.00;94796.19;5105874;28;19939;-72
2023/10/26 03:33:46;;;;;;;;;;;;;;;8.31;100.00;94793.56;5106995;28;19998;-72
2023/10/26 03:36:16;;;;;;;;;;;;;;;8.28;100.00;94792.25;5106864;28;20244;-73
2023/10/26 03:38:42;;;;;;;;;;;;;;;8.26;100.00;94796.91;5106881;28;19948;-72
2023/10/26 03:41:08;;;;;;;;;;;;;;;8.26;100.00;94794.31;5107217;28;19941;-72
2023/10/26 03:43:34;;;;;;;;;;;;;;;8.26;100.00;94790.91;5107529;28;19956;-73
2023/10/26 03:46:00;;;;;;;;;;;;;;;8.24;100.00;94791.16;5106786;28;19947;-81
2023/10/26 03:48:26;;;;;;;;;;;;;;;8.24;100.00;94788.53;5106696;28;19945;-81
2023/10/26 03:50:51;;;;;;;;;;;;;;;8.24;100.00;94795.59;5107212;28;19945;-81
2023/10/26 03:53:17;;;;;;;;;;;;;;;8.23;100.00;94791.38;5106585;28;20003;-81
2023/10/26 03:55:43;;;;;;;;;;;;;;;8.22;100.00;94787.22;5105391;28;19941;-81
2023/10/26 03:58:11;;;;;;;;;;;;;;;8.21;100.00;94780.38;5107328;28;19945;-81
2023/10/26 04:00:37;;;;;;;;;;;;;;;8.21;100.00;94783.81;5106432;28;19936;-80
2023/10/26 04:03:03;;;;;;;;;;;;;;;8.21;100.00;94785.63;5106379;28;19991;-81
2023/10/26 04:05:29;;;;;;;;;;;;;;;8.20;100.00;94787.44;5106884;28;19944;-81
2023/10/26 04:07:56;;;;;;;;;;;;;;;8.19;100.00;94772.81;5106554;28;19934;-81
2023/10/26 04:10:22;;;;;;;;;;;;;;;8.18;100.00;94768.63;5105963;28;19941;-81
2023/10/26 04:12:48;;;;;;;;;;;;;;;8.19;100.00;94778.03;5106193;28;20167;-81
2023/10/26 04:15:14;;;;;;;;;;;;;;;8.19;100.00;94778.03;5105585;28;19934;-81
2023/10/26 04:17:39;;;;;;;;;;;;;;;8.19;100.00;94775.44;5104881;28;19953;-81
2023/10/26 04:20:07;;;;;;;;;;;;;;;8.19;100.00;94780.66;5088889;28;19942;-81
2023/10/26 04:22:33;;;;;;;;;;;;;;;8.18;100.00;94766.00;5104769;28;19965;-72
2023/10/26 04:24:59;;;;;;;;;;;;;;;8.17;100.00;94764.44;5105395;28;19942;-72
2023/10/26 04:27:25;;;;;;;;;;;;;;;8.18;100.00;94776.44;5105829;28;19950;-73
2023/10/26 04:29:51;;;;;;;;;;;;;;;8.17;100.00;94779.28;5105009;28;19961;-72
2023/10/26 04:32:17;;;;;;;;;;;;;;;8.16;100.00;94772.50;5106378;28;19942;-73
2023/10/26 04:34:45;;;;;;;;;;;;;;;8.15;100.00;94787.41;5105650;28;19956;-72
2023/10/26 04:37:11;;;;;;;;;;;;;;;8.15;100.00;94776.94;5105734;28;20248;-72
2023/10/26 04:39:41;;;;;;;;;;;;;;;8.14;100.00;94773.53;5105304;28;19944;-80
2023/10/26 04:42:07;;;;;;;;;;;;;;;8.14;100.00;94765.69;5105580;28;19940;-80
2023/10/26 04:44:33;;;;;;;;;;;;;;;8.14;100.00;94763.09;5106359;28;19941;-79
2023/10/26 04:46:59;;;;;;;;;;;;;;;8.16;100.00;94755.03;5105895;28;19948;-80
2023/10/26 04:49:25;;;;;;;;;;;;;;;8.17;100.00;94755.81;5105680;28;19942;-80
2023/10/26 04:51:50;;;;;;;;;;;;;;;8.16;100.00;94762.84;5104357;28;19945;-79
2023/10/26 04:54:16;;;;;;;;;;;;;;;8.18;100.00;94765.22;5106140;28;19935;-80
2023/10/26 04:56:42;;;;;;;;;;;;;;;8.18;100.00;94768.63;5105376;28;19937;-72
2023/10/26 04:59:08;;;;;;;;;;;;;;;8.18;100.00;94771.22;5105296;28;19952;-80
2023/10/26 05:01:34;;;;;;;;;;;;;;;8.19;100.00;94766.78;5104923;28;19942;-80
2023/10/26 05:04:00;;;;;;;;;;;;;;;8.20;100.00;94763.16;5087122;28;20273;-80
2023/10/26 05:06:25;;;;;;;;;;;;;;;8.22;100.00;94766.31;5105140;28;19944;-80
2023/10/26 05:08:51;;;;;;;;;;;;;;;8.23;100.00;94760.88;5105116;28;19948;-80
2023/10/26 05:11:18;;;;;;;;;;;;;;;8.27;100.00;94758.53;5105564;28;20153;-81
2023/10/26 05:13:44;;;;;;;;;;;;;;;8.28;100.00;94758.28;5104978;28;19940;-81
2023/10/26 05:16:10;;;;;;;;;;;;;;;8.32;100.00;94756.00;5104768;28;19972;-73
2023/10/26 05:18:36;;;;;;;;;;;;;;;8.33;100.00;94753.13;5105145;28;19944;-72
2023/10/26 05:21:02;;;;;;;;;;;;;;;8.38;100.00;94746.38;5104874;28;20216;-73
2023/10/26 05:23:28;;;;;;;;;;;;;;;8.39;100.00;94746.13;5104348;28;19996;-72
2023/10/26 05:25:54;;;;;;;;;;;;;;;8.42;100.00;94739.66;5104761;28;20013;-72
2023/10/26 05:28:20;;;;;;;;;;;;;;;8.44;100.00;94729.75;5104328;28;19946;-72
2023/10/26 05:30:45;;;;;;;;;;;;;;;8.46;100.00;94725.06;5104784;28;19951;-72
2023/10/26 05:33:11;;;;;;;;;;;;;;;8.48;100.00;94730.81;5104707;28;19934;-76
2023/10/26 05:35:37;;;;;;;;;;;;;;;8.51;100.00;94732.97;5103700;28;19958;-80
2023/10/26 05:38:03;;;;;;;;;;;;;;;8.51;100.00;94728.53;5105456;28;19977;-76
2023/10/26 05:40:30;;;;;;;;;;;;;;;8.53;100.00;94720.44;5104505;28;19939;-76
2023/10/26 05:42:56;;;;;;;;;;;;;;;8.55;100.00;94728.81;5105023;28;19969;-75
2023/10/26 05:45:21;;;;;;;;;;;;;;;8.57;100.00;94726.75;5104518;28;19938;-76
2023/10/26 05:47:53;;;;;;;;;;;;;;;8.57;100.00;94724.16;5104843;28;19938;-76
2023/10/26 05:50:20;;;;;;;;;;;;;;;8.59;100.00;94716.03;5104441;28;19935;-76
2023/10/26 05:52:46;;;;;;;;;;;;;;;8.61;100.00;94709.56;5104099;28;19942;-76
2023/10/26 05:55:12;;;;;;;;;;;;;;;8.61;100.00;94713.97;5104923;28;19943;-73
2023/10/26 05:57:38;;;;;;;;;;;;;;;8.60;100.00;94713.19;5104254;28;19946;-72
2023/10/26 06:00:09;;;;;;;;;;;;;;;8.60;100.00;94726.25;5103248;28;20165;-73
2023/10/26 06:02:36;;;;;;;;;;;;;;;8.60;100.00;94713.19;5104756;28;19954;-73
2023/10/26 06:05:02;;;;;;;;;;;;;;;8.64;100.00;94708.25;5103075;28;19944;-73
2023/10/26 06:07:28;;;;;;;;;;;;;;;8.63;100.00;94702.25;5103073;28;19977;-73
2023/10/26 06:09:53;;;;;;;;;;;;;;;8.64;100.00;94700.41;5104261;28;19937;-72
2023/10/26 06:12:19;;;;;;;;;;;;;;;8.64;100.00;94706.44;5104191;28;19942;-72
2023/10/26 06:14:45;;;;;;;;;;;;;;;8.65;100.00;94702.78;5104939;28;19939;-73
2023/10/26 06:17:11;;;;;;;;;;;;;;;8.67;100.00;94711.19;5103999;28;19964;-72
2023/10/26 06:19:37;;;;;;;;;;;;;;;8.69;100.00;94714.31;5104263;28;20037;-72
2023/10/26 06:22:03;;;;;;;;;;;;;;;8.71;100.00;94703.59;5104629;28;19938;-73
2023/10/26 06:24:29;;;;;;;;;;;;;;;8.71;100.00;94701.81;5104532;28;19956;-72
2023/10/26 06:26:55;;;;;;;;;;;;;;;8.74;100.00;94708.34;5104078;28;19981;-72
2023/10/26 06:29:20;;;;;;;;;;;;;;;8.74;100.00;94706.53;5104018;28;20172;-73
2023/10/26 06:31:46;;;;;;;;;;;;;;;8.77;100.00;94702.63;5104009;28;19950;-82
2023/10/26 06:34:12;;;;;;;;;;;;;;;8.77;100.00;94707.84;5102684;28;19983;-82
2023/10/26 06:36:38;;;;;;;;;;;;;;;8.79;100.00;94699.75;5103560;28;19947;-81
2023/10/26 06:39:04;;;;;;;;;;;;;;;8.80;100.00;94709.97;5102896;28;20110;-82
2023/10/26 06:41:29;;;;;;;;;;;;;;;8.81;100.00;94724.59;5102736;28;20160;-81
2023/10/26 06:43:56;;;;;;;;;;;;;;;8.81;100.00;94718.59;5104356;28;19963;-81
2023/10/26 06:46:21;;;;;;;;;;;;;;;8.80;100.00;94722.22;5103827;28;19958;-73
2023/10/26 06:48:48;;;;;;;;;;;;;;;8.80;100.00;94727.47;5104594;28;20007;-79
2023/10/26 06:51:14;;;;;;;;;;;;;;;8.82;100.00;94720.16;5102716;28;19937;-76
2023/10/26 06:53:40;;;;;;;;;;;;;;;8.82;100.00;94715.75;5105103;28;19939;-76
2023/10/26 06:56:09;;;;;;;;;;;;;;;8.84;100.00;94716.28;5108473;28;20220;-76
2023/10/26 06:58:35;;;;;;;;;;;;;;;8.86;100.00;94721.25;5108154;28;19940;-75
2023/10/26 07:01:04;;;;;;;;;;;;;;;8.87;100.00;94718.38;5108103;28;19955;-75
2023/10/26 07:03:30;;;;;;;;;;;;;;;8.89;100.00;94713.69;5107913;28;19959;-76
2023/10/26 07:05:59;;;;;;;;;;;;;;;8.91;100.00;94718.69;5107541;28;19942;-77
2023/10/26 07:08:25;;;;;;;;;;;;;;;8.93;100.00;94712.16;5107389;28;20224;-73
2023/10/26 07:10:52;;;;;;;;;;;;;;;8.98;100.00;94719.25;5107934;28;19945;-73
2023/10/26 07:13:17;;;;;;;;;;;;;;;8.97;100.00;94709.06;5107867;28;19931;-73
2023/10/26 07:15:43;;;;;;;;;;;;;;;8.99;100.00;94704.34;5107154;28;19960;-73
2023/10/26 07:18:09;;;;;;;;;;;;;;;9.01;100.00;94710.09;5107836;28;20002;-73
2023/10/26 07:20:36;;;;;;;;;;;;;;;9.00;100.00;94725.00;5107257;28;19965;-73
2023/10/26 07:23:03;;;;;;;;;;;;;;;9.01;100.00;94721.38;5107369;28;19956;-72
2023/10/26 07:25:29;;;;;;;;;;;;;;;9.03;100.00;94711.47;5107139;28;19935;-76
2023/10/26 07:27:54;;;;;;;;;;;;;;;9.07;100.00;94711.72;5106053;28;19958;-73
2023/10/26 07:30:20;;;;;;;;;;;;;;;9.11;100.00;94713.63;5107583;28;19956;-73
2023/10/26 07:32:46;;;;;;;;;;;;;;;9.17;100.00;94708.41;5107794;28;19940;-72
2023/10/26 07:35:14;;;;;;;;;;;;;;;9.20;100.00;94697.44;5106921;28;19996;-72
2023/10/26 07:37:40;;;;;;;;;;;;;;;9.24;100.00;94701.13;5107449;28;19941;-72
2023/10/26 07:40:06;;;;;;;;;;;;;;;9.27;100.00;94705.88;5107444;28;20041;-72
2023/10/26 07:42:32;;;;;;;;;;;;;;;9.31;100.00;94705.09;5106780;28;20119;-80
2023/10/26 07:44:58;;;;;;;;;;;;;;;9.32;100.00;94704.06;5105762;28;19929;-80
2023/10/26 07:47:24;;;;;;;;;;;;;;;9.37;100.00;94702.53;5105603;28;19939;-80
2023/10/26 07:49:50;;;;;;;;;;;;;;;9.40;100.00;94709.84;5106687;28;19985;-80
2023/10/26 07:52:16;;;;;;;;;;;;;;;9.42;100.00;94703.31;5107188;28;19938;-79
2023/10/26 07:54:41;;;;;;;;;;;;;;;9.42;100.00;94708.56;5106578;28;19935;-79
2023/10/26 07:57:07;;;;;;;;;;;;;;;9.45;100.00;94699.41;5106557;28;20005;-79
2023/10/26 07:59:33;;;;;;;;;;;;;;;9.45;100.00;94697.59;5105329;28;19943;-78
2023/10/26 08:01:59;;;;;;;;;;;;;;;9.47;100.00;94706.00;5107071;28;19941;-73
2023/10/26 08:04:27;;;;;;;;;;;;;;;9.51;100.00;94706.25;5106082;28;19956;-79
2023/10/26 08:06:53;;;;;;;;;;;;;;;9.54;100.00;94703.91;5106378;28;19942;-79
2023/10/26 08:09:19;;;;;;;;;;;;;;;9.57;100.00;94701.84;5106271;28;20108;-79
2023/10/26 08:11:45;;;;;;;;;;;;;;;9.59;100.00;94694.53;5106240;28;19934;-79
2023/10/26 08:14:11;;;;;;;;;;;;;;;9.60;100.00;94677.78;5106249;28;19971;-79
2023/10/26 08:16:38;;;;;;;;;;;;;;;9.62;100.00;94680.94;5105905;28;19961;-78
2023/10/26 08:19:04;;;;;;;;;;;;;;;9.65;100.00;94693.50;5106174;28;20239;-72
2023/10/26 08:21:30;;;;;;;;;;;;;;;9.66;100.00;94690.66;5105789;28;19944;-72
2023/10/26 08:23:56;;;;;;;;;;;;;;;9.66;100.00;94680.19;5105860;28;19951;-72
2023/10/26 08:26:22;;;;;;;;;;;;;;;9.69;100.00;94678.88;5105947;28;19942;-72
2023/10/26 08:28:48;;;;;;;;;;;;;;;9.71;100.00;94679.41;5106715;28;20000;-72
2023/10/26 08:31:13;;;;;;;;;;;;;;;9.75;100.00;94680.47;5105873;28;20009;-72
2023/10/26 08:33:39;;;;;;;;;;;;;;;9.80;100.00;94680.47;5105794;28;19937;-72
2023/10/26 08:36:06;;;;;;;;;;;;;;;9.84;100.00;94684.16;5105743;28;20245;-72
2023/10/26 08:38:32;;;;;;;;;;;;;;;9.87;100.00;94688.91;5105657;28;19945;-79
2023/10/26 08:40:58;;;;;;;;;;;;;;;9.89;100.00;94686.81;5105681;28;20008;-81
2023/10/26 08:43:24;;;;;;;;;;;;;;;9.91;100.00;94687.34;5105532;28;19951;-81
2023/10/26 08:45:51;;;;;;;;;;;;;;;9.91;100.00;94692.59;5105551;28;19960;-81
2023/10/26 08:48:18;;;;;;;;;;;;;;;9.92;100.00;94698.59;5104429;28;19934;-81
2023/10/26 08:50:45;;;;;;;;;;;;;;;9.92;100.00;94706.44;5105501;28;19933;-80
2023/10/26 08:53:11;;;;;;;;;;;;;;;9.93;100.00;94708.81;5105440;28;20123;-80
2023/10/26 08:55:41;;;;;;;;;;;;;;;9.93;100.00;94706.22;5088194;28;19941;-71
2023/10/26 08:58:07;;;;;;;;;;;;;;;9.93;100.00;94692.31;5105357;28;19936;-75
2023/10/26 09:00:34;;;;;;;;;;;;;;;9.94;100.00;94691.28;5104196;28;19963;-71
2023/10/26 09:03:00;;;;;;;;;;;;;;;9.95;100.00;94685.78;5105439;28;19939;-71
2023/10/26 09:05:26;;;;;;;;;;;;;;;9.96;100.00;94683.94;5105217;28;19969;-72
2023/10/26 09:07:52;;;;;;;;;;;;;;;9.96;100.00;94681.34;5105700;28;20266;-72
2023/10/26 09:10:31;;;;;;;;;;;;;;;9.95;100.00;94680.56;5105912;28;20237;-72
2023/10/26 09:12:58;;;;;;;;;;;;;;;9.96;100.00;94668.25;5105546;28;19938;-71
2023/10/26 09:15:24;;;;;;;;;;;;;;;9.96;100.00;94673.47;5105373;28;19939;-75
2023/10/26 09:17:53;;;;;;;;;;;;;;;9.98;100.00;94671.38;5105267;28;20015;-77
2023/10/26 09:20:22;;;;;;;;;;;;;;;10.01;100.00;94683.19;5105455;28;19935;-77
2023/10/26 09:22:48;;;;;;;;;;;;;;;10.04;100.00;94695.78;5104845;28;19932;-77
2023/10/26 09:25:14;;;;;;;;;;;;;;;10.06;100.00;94698.91;5104867;28;19978;-77
2023/10/26 09:27:41;;;;;;;;;;;;;;;10.07;100.00;94708.34;5104790;28;19978;-77
2023/10/26 09:30:22;;;;;;;;;;;;;;;10.08;100.00;94715.13;5104814;28;19933;-78
2023/10/26 09:32:48;;;;;;;;;;;;;;;10.04;100.00;94701.78;5105121;28;20126;-75
2023/10/26 09:35:27;;;;;;;;;;;;;;;10.01;100.00;94685.78;5104939;28;19995;-70
2023/10/26 09:37:53;;;;;;;;;;;;;;;10.02;100.00;94688.16;5104678;28;19944;-70
2023/10/26 09:40:20;;;;;;;;;;;;;;;10.05;100.00;94699.94;5104557;28;19941;-70
2023/10/26 09:42:46;;;;;;;;;;;;;;;10.08;100.00;94687.13;5105163;28;19940;-71
2023/10/26 09:45:12;;;;;;;;;;;;;;;10.10;100.00;94685.06;5104461;28;19961;-70
2023/10/26 09:47:38;;;;;;;;;;;;;;;10.12;100.00;94680.34;5104487;28;19941;-70
2023/10/26 09:50:05;;;;;;;;;;;;;;;10.18;100.00;94686.34;5105031;28;20225;-72
2023/10/26 09:52:31;;;;;;;;;;;;;;;10.21;100.00;94688.47;5104498;28;19939;-80
2023/10/26 09:54:57;;;;;;;;;;;;;;;10.25;100.00;94694.00;5104399;28;19944;-73
2023/10/26 09:57:29;;;;;;;;;;;;;;;10.27;100.00;94682.22;5104374;28;20242;-73
2023/10/26 09:59:56;;;;;;;;;;;;;;;10.28;100.00;94678.53;5104813;28;20116;-72
2023/10/26 10:02:23;;;;;;;;;;;;;;;10.30;100.00;94680.94;5104336;28;19940;-73
2023/10/26 10:04:49;;;;;;;;;;;;;;;10.32;100.00;94677.00;5104472;28;19955;-73
2023/10/26 10:07:35;;;;;;;;;;;;;;;10.34;100.00;94672.28;5104876;28;20007;-72
2023/10/26 10:10:01;;;;;;;;;;;;;;;10.38;100.00;94680.41;5104136;28;19940;-74
2023/10/26 10:12:27;;;;;;;;;;;;;;;10.42;100.00;94678.84;5104105;28;20253;-82
2023/10/26 10:14:57;;;;;;;;;;;;;;;10.46;100.00;94673.88;5103811;28;20037;-82
2023/10/26 10:17:42;;;;;;;;;;;;;;;10.52;100.00;94673.63;5102945;28;19976;-82
2023/10/26 10:20:14;;;;;;;;;;;;;;;10.59;100.00;94678.63;5104149;28;19937;-83
2023/10/26 10:22:40;;;;;;;;;;;;;;;10.64;100.00;94677.81;5102915;28;20147;-82
2023/10/26 10:25:10;;;;;;;;;;;;;;;10.69;100.00;94672.59;5103657;28;20260;-83
2023/10/26 10:27:40;;;;;;;;;;;;;;;10.71;100.00;94681.00;5086042;28;20182;-76
2023/10/26 10:30:10;;;;;;;;;;;;;;;10.76;100.00;94687.00;5107605;28;19943;-71
2023/10/26 10:32:42;;;;;;;;;;;;;;;10.79;100.00;94680.44;5107088;28;19949;-72
2023/10/26 10:35:08;;;;;;;;;;;;;;;10.85;100.00;94689.88;5108038;28;19957;-73
2023/10/26 10:37:35;;;;;;;;;;;;;;;10.93;100.00;94683.34;5108097;28;19941;-72
2023/10/26 10:40:12;;;;;;;;;;;;;;;10.99;100.00;94690.16;5107975;28;19962;-72
2023/10/26 10:42:45;;;;;;;;;;;;;;;11.05;100.00;94686.47;5107957;28;19933;-73
2023/10/26 10:45:12;;;;;;;;;;;;;;;11.11;100.00;94685.44;5108143;28;19953;-73
2023/10/26 10:47:41;;;;;;;;;;;;;;;11.13;100.00;94674.69;5107754;28;20154;-76
2023/10/26 10:50:13;;;;;;;;;;;;;;;11.14;100.00;94702.47;5106629;28;19934;-72
2023/10/26 10:52:40;;;;;;;;;;;;;;;11.17;100.00;94694.06;5107746;28;19944;-72
2023/10/26 10:55:06;;;;;;;;;;;;;;;11.19;100.00;94691.97;5106679;28;19937;-72
2023/10/26 10:57:32;;;;;;;;;;;;;;;11.21;100.00;94683.84;5107694;28;19939;-72
2023/10/26 10:59:57;;;;;;;;;;;;;;;11.20;100.00;94684.91;5107653;28;19934;-72
2023/10/26 11:02:23;;;;;;;;;;;;;;;11.20;100.00;94693.56;5107550;28;20279;-72
2023/10/26 11:04:57;;;;;;;;;;;;;;;11.22;100.00;94691.44;5108342;28;20133;-77
2023/10/26 11:07:29;;;;;;;;;;;;;;;11.27;100.00;94688.03;5107557;28;20133;-73
2023/10/26 11:09:56;;;;;;;;;;;;;;;11.32;100.00;94680.94;5107476;28;19935;-73
2023/10/26 11:12:22;;;;;;;;;;;;;;;11.36;100.00;94675.97;5107408;28;19945;-73
2023/10/26 11:14:51;;;;;;;;;;;;;;;11.38;100.00;94684.31;5107360;28;19936;-73
2023/10/26 11:17:20;;;;;;;;;;;;;;;11.40;100.00;94679.59;5106071;28;19974;-72
2023/10/26 11:19:47;;;;;;;;;;;;;;;11.48;100.00;94678.28;5107304;28;19939;-73
2023/10/26 11:22:16;;;;;;;;;;;;;;;11.54;100.00;94690.34;5107230;28;20182;-83
2023/10/26 11:24:42;;;;;;;;;;;;;;;11.57;100.00;94685.34;5106715;28;19966;-77
2023/10/26 11:27:12;;;;;;;;;;;;;;;11.58;100.00;94673.78;5106774;28;19946;-84
2023/10/26 11:29:40;;;;;;;;;;;;;;;11.62;100.00;94666.16;5106767;28;19950;-85
2023/10/26 11:32:24;;;;;;;;;;;;;;;11.64;100.00;94666.69;5105999;28;19943;-84
2023/10/26 11:35:09;;;;;;;;;;;;;;;11.72;100.00;94660.09;5105809;28;19961;-85
2023/10/26 11:37:40;;;;;;;;;;;;;;;11.85;100.00;94658.72;5107416;28;20206;-85
2023/10/26 11:40:07;;;;;;;;;;;;;;;12.06;100.00;94657.59;5107141;28;19942;-84
2023/10/26 11:43:03;;;;;;;;;;;;;;;12.30;100.00;94651.69;5106906;28;19942;-77
2023/10/26 11:45:29;;;;;;;;;;;;;;;12.52;100.00;94648.66;5094252;28;19961;-76
2023/10/26 11:48:01;;;;;;;;;;;;;;;12.73;100.00;94644.81;5106446;28;20113;-75
2023/10/26 11:50:31;;;;;;;;;;;;;;;12.91;100.00;94656.47;5107209;28;19947;-75
2023/10/26 11:52:58;;;;;;;;;;;;;;;13.06;100.00;94652.97;5107197;28;20208;-75
2023/10/26 11:55:25;;;;;;;;;;;;;;;13.16;100.00;94650.22;5106554;28;19943;-76
2023/10/26 11:57:51;;;;;;;;;;;;;;;13.23;100.00;94638.56;5106542;28;19936;-75
2023/10/26 12:00:18;;;;;;;;;;;;;;;13.27;100.00;94626.44;5106553;28;19934;-72
2023/10/26 12:02:44;;;;;;;;;;;;;;;13.35;100.00;94626.63;5106518;28;19944;-75
2023/10/26 12:05:17;;;;;;;;;;;;;;;13.46;100.00;94629.97;5106008;28;19956;-76
2023/10/26 12:07:43;;;;;;;;;;;;;;;13.53;100.00;94626.97;5107062;28;19934;-75
2023/10/26 12:10:09;;;;;;;;;;;;;;;13.54;100.00;94618.00;5106823;28;19956;-76
2023/10/26 12:12:35;;;;;;;;;;;;;;;13.51;100.00;94622.00;5106277;28;20103;-76
2023/10/26 12:15:01;;;;;;;;;;;;;;;13.47;100.00;94618.34;5106994;28;20008;-75
2023/10/26 12:17:27;;;;;;;;;;;;;;;13.46;100.00;94618.63;5106076;28;19988;-75
2023/10/26 12:19:52;;;;;;;;;;;;;;;13.46;100.00;94616.78;5106989;28;19938;-72
2023/10/26 12:22:19;;;;;;;;;;;;;;;13.45;100.00;94602.03;5106579;28;20269;-74
2023/10/26 12:24:44;;;;;;;;;;;;;;;13.46;100.00;94613.34;5106511;28;19953;-73
2023/10/26 12:27:11;;;;;;;;;;;;;;;13.48;100.00;94612.03;5105633;28;20238;-73
2023/10/26 12:29:37;;;;;;;;;;;;;;;13.57;100.00;94604.28;5105927;28;19945;-73
2023/10/26 12:32:03;;;;;;;;;;;;;;;13.64;100.00;94598.66;5105861;28;20143;-73
2023/10/26 12:34:28;;;;;;;;;;;;;;;13.67;100.00;94614.72;5106378;28;19953;-73
2023/10/26 12:36:54;;;;;;;;;;;;;;;13.73;100.00;94610.13;5105881;28;19996;-77
2023/10/26 12:39:20;;;;;;;;;;;;;;;13.85;100.00;94607.88;5105742;28;19941;-72
2023/10/26 12:41:46;;;;;;;;;;;;;;;13.95;100.00;94613.03;5105752;28;20117;-72